sensor_id;sensor_type;location;lat;lon;timestamp;P1;durP1;ratioP1;P2;durP2;ratioP2
70975;SDS011;58635;51.198;6.010;2023-02-28T00:00:43;7.15;;;4.55;;
70975;SDS011;58635;51.198;6.010;2023-02-28T00:03:09;8.57;;;5.10;;
70975;SDS011;58635;51.198;6.010;2023-02-28T00:05:35;7.43;;;4.18;;
70975;SDS011;58635;51.198;6.010;2023-02-28T00:08:01;7.00;;;4.63;;
70975;SDS011;58635;51.198;6.010;2023-02-28T00:10:29;8.90;;;5.03;;
70975;SDS011;58635;51.198;6.010;2023-02-28T00:12:56;7.55;;;4.20;;
70975;SDS011;58635;51.198;6.010;2023-02-28T00:15:25;9.63;;;4.55;;
70975;SDS011;58635;51.198;6.010;2023-02-28T00:17:51;8.25;;;4.65;;
70975;SDS011;58635;51.198;6.010;2023-02-28T00:20:16;7.20;;;4.45;;
70975;SDS011;58635;51.198;6.010;2023-02-28T00:22:43;6.15;;;4.20;;
70975;SDS011;58635;51.198;6.010;2023-02-28T00:25:11;9.20;;;4.60;;
70975;SDS011;58635;51.198;6.010;2023-02-28T00:27:37;7.10;;;4.20;;
70975;SDS011;58635;51.198;6.010;2023-02-28T00:30:05;7.38;;;4.32;;
70975;SDS011;58635;51.198;6.010;2023-02-28T00:32:32;8.15;;;4.60;;
70975;SDS011;58635;51.198;6.010;2023-02-28T00:34:59;5.68;;;3.78;;
70975;SDS011;58635;51.198;6.010;2023-02-28T00:37:24;6.80;;;4.10;;
70975;SDS011;58635;51.198;6.010;2023-02-28T00:39:50;8.00;;;4.97;;
70975;SDS011;58635;51.198;6.010;2023-02-28T00:42:15;6.10;;;4.20;;
70975;SDS011;58635;51.198;6.010;2023-02-28T00:44:41;7.38;;;4.50;;
70975;SDS011;58635;51.198;6.010;2023-02-28T00:47:06;6.95;;;4.72;;
70975;SDS011;58635;51.198;6.010;2023-02-28T00:49:32;6.55;;;4.65;;
70975;SDS011;58635;51.198;6.010;2023-02-28T00:51:57;8.27;;;4.50;;
70975;SDS011;58635;51.198;6.010;2023-02-28T00:54:23;9.07;;;4.95;;
70975;SDS011;58635;51.198;6.010;2023-02-28T00:56:49;7.60;;;4.40;;
70975;SDS011;58635;51.198;6.010;2023-02-28T00:59:15;9.82;;;5.05;;
70975;SDS011;58635;51.198;6.010;2023-02-28T01:01:42;8.40;;;4.70;;
70975;SDS011;58635;51.198;6.010;2023-02-28T01:04:09;8.65;;;4.88;;
70975;SDS011;58635;51.198;6.010;2023-02-28T01:06:34;8.05;;;4.72;;
70975;SDS011;58635;51.198;6.010;2023-02-28T01:09:00;7.25;;;4.85;;
70975;SDS011;58635;51.198;6.010;2023-02-28T01:11:26;9.90;;;5.10;;
70975;SDS011;58635;51.198;6.010;2023-02-28T01:13:51;7.10;;;4.22;;
70975;SDS011;58635;51.198;6.010;2023-02-28T01:16:17;7.32;;;4.90;;
70975;SDS011;58635;51.198;6.010;2023-02-28T01:18:42;8.30;;;5.13;;
70975;SDS011;58635;51.198;6.010;2023-02-28T01:21:10;10.32;;;5.13;;
70975;SDS011;58635;51.198;6.010;2023-02-28T01:23:37;8.30;;;5.03;;
70975;SDS011;58635;51.198;6.010;2023-02-28T01:26:13;10.27;;;4.68;;
70975;SDS011;58635;51.198;6.010;2023-02-28T01:28:40;8.93;;;4.68;;
70975;SDS011;58635;51.198;6.010;2023-02-28T01:31:06;9.02;;;4.70;;
70975;SDS011;58635;51.198;6.010;2023-02-28T01:33:32;7.40;;;4.95;;
70975;SDS011;58635;51.198;6.010;2023-02-28T01:36:02;9.52;;;5.30;;
70975;SDS011;58635;51.198;6.010;2023-02-28T01:38:32;8.77;;;5.20;;
70975;SDS011;58635;51.198;6.010;2023-02-28T01:40:58;9.23;;;5.32;;
70975;SDS011;58635;51.198;6.010;2023-02-28T01:43:25;8.52;;;5.10;;
70975;SDS011;58635;51.198;6.010;2023-02-28T01:45:53;10.05;;;4.85;;
70975;SDS011;58635;51.198;6.010;2023-02-28T01:48:21;7.05;;;4.63;;
70975;SDS011;58635;51.198;6.010;2023-02-28T01:50:51;7.13;;;5.20;;
70975;SDS011;58635;51.198;6.010;2023-02-28T01:53:19;7.32;;;4.82;;
70975;SDS011;58635;51.198;6.010;2023-02-28T01:55:51;10.77;;;5.32;;
70975;SDS011;58635;51.198;6.010;2023-02-28T01:58:19;9.65;;;5.35;;
70975;SDS011;58635;51.198;6.010;2023-02-28T02:00:46;7.45;;;4.80;;
70975;SDS011;58635;51.198;6.010;2023-02-28T02:03:15;7.85;;;4.72;;
70975;SDS011;58635;51.198;6.010;2023-02-28T02:05:46;9.38;;;4.75;;
70975;SDS011;58635;51.198;6.010;2023-02-28T02:08:20;7.55;;;4.75;;
70975;SDS011;58635;51.198;6.010;2023-02-28T02:10:54;7.55;;;4.55;;
70975;SDS011;58635;51.198;6.010;2023-02-28T02:24:49;10.18;;;4.80;;
70975;SDS011;58635;51.198;6.010;2023-02-28T02:27:56;10.98;;;4.78;;
70975;SDS011;58635;51.198;6.010;2023-02-28T02:36:48;10.43;;;4.78;;
70975;SDS011;58635;51.198;6.010;2023-02-28T02:39:41;8.13;;;4.63;;
70975;SDS011;58635;51.198;6.010;2023-02-28T02:42:15;9.15;;;4.70;;
70975;SDS011;58635;51.198;6.010;2023-02-28T02:44:52;8.82;;;4.20;;
70975;SDS011;58635;51.198;6.010;2023-02-28T02:47:24;7.43;;;4.75;;
70975;SDS011;58635;51.198;6.010;2023-02-28T02:49:54;7.50;;;4.43;;
70975;SDS011;58635;51.198;6.010;2023-02-28T02:52:22;7.57;;;4.40;;
70975;SDS011;58635;51.198;6.010;2023-02-28T02:54:54;7.30;;;4.60;;
70975;SDS011;58635;51.198;6.010;2023-02-28T02:57:28;6.13;;;4.25;;
70975;SDS011;58635;51.198;6.010;2023-02-28T02:59:59;8.25;;;5.07;;
70975;SDS011;58635;51.198;6.010;2023-02-28T03:02:29;6.75;;;4.43;;
70975;SDS011;58635;51.198;6.010;2023-02-28T03:04:59;6.90;;;3.97;;
70975;SDS011;58635;51.198;6.010;2023-02-28T03:07:29;6.50;;;4.38;;
70975;SDS011;58635;51.198;6.010;2023-02-28T03:09:55;8.45;;;4.82;;
70975;SDS011;58635;51.198;6.010;2023-02-28T03:12:32;8.82;;;4.40;;
70975;SDS011;58635;51.198;6.010;2023-02-28T03:17:55;8.15;;;5.25;;
70975;SDS011;58635;51.198;6.010;2023-02-28T03:20:33;8.73;;;4.82;;
70975;SDS011;58635;51.198;6.010;2023-02-28T03:23:10;11.98;;;4.68;;
70975;SDS011;58635;51.198;6.010;2023-02-28T03:28:36;7.28;;;4.82;;
70975;SDS011;58635;51.198;6.010;2023-02-28T03:31:11;8.10;;;4.63;;
70975;SDS011;58635;51.198;6.010;2023-02-28T03:33:44;7.53;;;5.07;;
70975;SDS011;58635;51.198;6.010;2023-02-28T03:36:20;9.88;;;4.80;;
70975;SDS011;58635;51.198;6.010;2023-02-28T03:38:50;8.63;;;4.85;;
70975;SDS011;58635;51.198;6.010;2023-02-28T03:44:00;8.80;;;4.40;;
70975;SDS011;58635;51.198;6.010;2023-02-28T03:46:32;6.82;;;4.53;;
70975;SDS011;58635;51.198;6.010;2023-02-28T03:49:11;6.15;;;4.43;;
70975;SDS011;58635;51.198;6.010;2023-02-28T03:51:43;7.80;;;4.53;;
70975;SDS011;58635;51.198;6.010;2023-02-28T03:54:13;9.40;;;4.10;;
70975;SDS011;58635;51.198;6.010;2023-02-28T03:56:46;8.50;;;4.68;;
70975;SDS011;58635;51.198;6.010;2023-02-28T04:02:09;9.85;;;4.72;;
70975;SDS011;58635;51.198;6.010;2023-02-28T04:04:35;5.85;;;4.13;;
70975;SDS011;58635;51.198;6.010;2023-02-28T04:07:02;7.28;;;4.30;;
70975;SDS011;58635;51.198;6.010;2023-02-28T04:09:29;9.48;;;4.65;;
70975;SDS011;58635;51.198;6.010;2023-02-28T04:11:54;7.47;;;4.50;;
70975;SDS011;58635;51.198;6.010;2023-02-28T04:14:21;6.60;;;4.10;;
70975;SDS011;58635;51.198;6.010;2023-02-28T04:16:47;6.78;;;4.47;;
70975;SDS011;58635;51.198;6.010;2023-02-28T04:19:13;6.45;;;4.30;;
70975;SDS011;58635;51.198;6.010;2023-02-28T04:21:52;6.18;;;4.22;;
70975;SDS011;58635;51.198;6.010;2023-02-28T04:24:22;8.20;;;4.13;;
70975;SDS011;58635;51.198;6.010;2023-02-28T04:26:50;6.53;;;4.60;;
70975;SDS011;58635;51.198;6.010;2023-02-28T04:29:19;8.50;;;4.57;;
70975;SDS011;58635;51.198;6.010;2023-02-28T04:31:46;6.85;;;4.55;;
70975;SDS011;58635;51.198;6.010;2023-02-28T04:34:12;7.70;;;4.63;;
70975;SDS011;58635;51.198;6.010;2023-02-28T04:36:37;6.97;;;4.05;;
70975;SDS011;58635;51.198;6.010;2023-02-28T04:39:03;6.90;;;4.57;;
70975;SDS011;58635;51.198;6.010;2023-02-28T04:41:29;7.75;;;4.53;;
70975;SDS011;58635;51.198;6.010;2023-02-28T04:43:54;6.68;;;4.55;;
70975;SDS011;58635;51.198;6.010;2023-02-28T04:46:21;6.32;;;3.97;;
70975;SDS011;58635;51.198;6.010;2023-02-28T04:48:47;7.93;;;4.40;;
70975;SDS011;58635;51.198;6.010;2023-02-28T04:51:13;7.50;;;4.72;;
70975;SDS011;58635;51.198;6.010;2023-02-28T04:53:40;6.47;;;4.32;;
70975;SDS011;58635;51.198;6.010;2023-02-28T04:56:07;6.50;;;4.15;;
70975;SDS011;58635;51.198;6.010;2023-02-28T04:58:35;9.80;;;4.78;;
70975;SDS011;58635;51.198;6.010;2023-02-28T05:01:01;8.68;;;4.93;;
70975;SDS011;58635;51.198;6.010;2023-02-28T05:03:28;6.72;;;4.30;;
70975;SDS011;58635;51.198;6.010;2023-02-28T05:05:53;9.25;;;4.55;;
70975;SDS011;58635;51.198;6.010;2023-02-28T05:08:19;8.27;;;5.18;;
70975;SDS011;58635;51.198;6.010;2023-02-28T05:10:44;11.57;;;4.43;;
70975;SDS011;58635;51.198;6.010;2023-02-28T05:13:11;6.57;;;4.20;;
70975;SDS011;58635;51.198;6.010;2023-02-28T05:15:37;6.63;;;4.32;;
70975;SDS011;58635;51.198;6.010;2023-02-28T05:18:03;8.63;;;4.43;;
70975;SDS011;58635;51.198;6.010;2023-02-28T05:20:28;9.00;;;4.38;;
70975;SDS011;58635;51.198;6.010;2023-02-28T05:22:53;6.38;;;4.45;;
70975;SDS011;58635;51.198;6.010;2023-02-28T05:25:20;9.13;;;4.47;;
70975;SDS011;58635;51.198;6.010;2023-02-28T05:27:47;7.35;;;4.25;;
70975;SDS011;58635;51.198;6.010;2023-02-28T05:30:13;8.43;;;3.85;;
70975;SDS011;58635;51.198;6.010;2023-02-28T05:32:39;7.05;;;4.00;;
70975;SDS011;58635;51.198;6.010;2023-02-28T05:35:08;5.90;;;3.60;;
70975;SDS011;58635;51.198;6.010;2023-02-28T05:37:38;6.25;;;4.00;;
70975;SDS011;58635;51.198;6.010;2023-02-28T05:40:04;6.75;;;4.00;;
70975;SDS011;58635;51.198;6.010;2023-02-28T05:42:37;6.65;;;4.22;;
70975;SDS011;58635;51.198;6.010;2023-02-28T05:45:06;5.97;;;4.20;;
70975;SDS011;58635;51.198;6.010;2023-02-28T05:47:32;6.70;;;4.28;;
70975;SDS011;58635;51.198;6.010;2023-02-28T05:49:57;9.45;;;4.25;;
70975;SDS011;58635;51.198;6.010;2023-02-28T05:52:22;7.78;;;4.00;;
70975;SDS011;58635;51.198;6.010;2023-02-28T05:54:49;9.38;;;4.43;;
70975;SDS011;58635;51.198;6.010;2023-02-28T05:57:15;9.13;;;4.55;;
70975;SDS011;58635;51.198;6.010;2023-02-28T05:59:40;8.52;;;4.93;;
70975;SDS011;58635;51.198;6.010;2023-02-28T06:02:06;8.80;;;4.53;;
70975;SDS011;58635;51.198;6.010;2023-02-28T06:04:37;9.85;;;4.68;;
70975;SDS011;58635;51.198;6.010;2023-02-28T06:07:02;9.82;;;4.80;;
70975;SDS011;58635;51.198;6.010;2023-02-28T06:09:28;7.80;;;4.07;;
70975;SDS011;58635;51.198;6.010;2023-02-28T06:11:54;8.25;;;4.50;;
70975;SDS011;58635;51.198;6.010;2023-02-28T06:14:19;9.00;;;4.13;;
70975;SDS011;58635;51.198;6.010;2023-02-28T06:16:46;7.32;;;3.95;;
70975;SDS011;58635;51.198;6.010;2023-02-28T06:19:11;7.07;;;3.97;;
70975;SDS011;58635;51.198;6.010;2023-02-28T06:21:38;5.90;;;3.92;;
70975;SDS011;58635;51.198;6.010;2023-02-28T06:24:03;8.90;;;4.13;;
70975;SDS011;58635;51.198;6.010;2023-02-28T06:26:29;6.53;;;3.95;;
70975;SDS011;58635;51.198;6.010;2023-02-28T06:28:54;8.00;;;4.35;;
70975;SDS011;58635;51.198;6.010;2023-02-28T06:31:20;9.07;;;4.35;;
70975;SDS011;58635;51.198;6.010;2023-02-28T06:33:46;7.75;;;3.72;;
70975;SDS011;58635;51.198;6.010;2023-02-28T06:36:13;7.05;;;4.10;;
70975;SDS011;58635;51.198;6.010;2023-02-28T06:38:39;6.25;;;4.05;;
70975;SDS011;58635;51.198;6.010;2023-02-28T06:41:06;8.38;;;3.95;;
70975;SDS011;58635;51.198;6.010;2023-02-28T06:43:34;7.57;;;4.15;;
70975;SDS011;58635;51.198;6.010;2023-02-28T06:46:03;7.45;;;4.22;;
70975;SDS011;58635;51.198;6.010;2023-02-28T06:48:29;6.22;;;4.03;;
70975;SDS011;58635;51.198;6.010;2023-02-28T06:51:02;8.00;;;4.28;;
70975;SDS011;58635;51.198;6.010;2023-02-28T06:53:32;6.10;;;4.18;;
70975;SDS011;58635;51.198;6.010;2023-02-28T06:55:58;6.85;;;3.88;;
70975;SDS011;58635;51.198;6.010;2023-02-28T06:58:24;8.93;;;4.38;;
70975;SDS011;58635;51.198;6.010;2023-02-28T07:00:51;9.30;;;4.80;;
70975;SDS011;58635;51.198;6.010;2023-02-28T07:03:17;9.52;;;5.03;;
70975;SDS011;58635;51.198;6.010;2023-02-28T07:05:43;9.13;;;4.90;;
70975;SDS011;58635;51.198;6.010;2023-02-28T07:08:10;8.13;;;4.63;;
70975;SDS011;58635;51.198;6.010;2023-02-28T07:10:38;9.63;;;4.45;;
70975;SDS011;58635;51.198;6.010;2023-02-28T07:13:05;8.88;;;4.90;;
70975;SDS011;58635;51.198;6.010;2023-02-28T07:15:31;7.35;;;4.75;;
70975;SDS011;58635;51.198;6.010;2023-02-28T07:17:56;10.27;;;4.65;;
70975;SDS011;58635;51.198;6.010;2023-02-28T07:20:22;7.32;;;4.03;;
70975;SDS011;58635;51.198;6.010;2023-02-28T07:22:48;8.25;;;4.07;;
70975;SDS011;58635;51.198;6.010;2023-02-28T07:25:20;7.43;;;4.13;;
70975;SDS011;58635;51.198;6.010;2023-02-28T07:27:46;7.47;;;3.53;;
70975;SDS011;58635;51.198;6.010;2023-02-28T07:30:12;7.78;;;4.00;;
70975;SDS011;58635;51.198;6.010;2023-02-28T07:32:38;7.55;;;4.10;;
70975;SDS011;58635;51.198;6.010;2023-02-28T07:35:03;9.02;;;4.00;;
70975;SDS011;58635;51.198;6.010;2023-02-28T07:37:32;6.10;;;3.78;;
70975;SDS011;58635;51.198;6.010;2023-02-28T07:40:02;7.10;;;3.90;;
70975;SDS011;58635;51.198;6.010;2023-02-28T07:42:33;7.78;;;4.05;;
70975;SDS011;58635;51.198;6.010;2023-02-28T07:45:00;8.32;;;4.47;;
70975;SDS011;58635;51.198;6.010;2023-02-28T07:47:25;8.27;;;4.55;;
70975;SDS011;58635;51.198;6.010;2023-02-28T07:49:51;6.40;;;3.90;;
70975;SDS011;58635;51.198;6.010;2023-02-28T07:52:16;11.20;;;4.90;;
70975;SDS011;58635;51.198;6.010;2023-02-28T07:54:42;11.70;;;3.70;;
70975;SDS011;58635;51.198;6.010;2023-02-28T07:57:07;85.60;;;10.10;;
70975;SDS011;58635;51.198;6.010;2023-02-28T07:59:33;31.48;;;7.70;;
70975;SDS011;58635;51.198;6.010;2023-02-28T08:01:58;16.73;;;4.80;;
70975;SDS011;58635;51.198;6.010;2023-02-28T08:04:24;13.35;;;5.20;;
70975;SDS011;58635;51.198;6.010;2023-02-28T08:06:49;10.75;;;4.03;;
70975;SDS011;58635;51.198;6.010;2023-02-28T08:09:17;12.18;;;4.53;;
70975;SDS011;58635;51.198;6.010;2023-02-28T08:11:42;11.13;;;4.25;;
70975;SDS011;58635;51.198;6.010;2023-02-28T08:14:07;9.52;;;4.53;;
70975;SDS011;58635;51.198;6.010;2023-02-28T08:16:33;7.35;;;4.30;;
70975;SDS011;58635;51.198;6.010;2023-02-28T08:18:58;7.00;;;4.32;;
70975;SDS011;58635;51.198;6.010;2023-02-28T08:21:24;6.95;;;3.85;;
70975;SDS011;58635;51.198;6.010;2023-02-28T08:23:50;6.05;;;3.38;;
70975;SDS011;58635;51.198;6.010;2023-02-28T08:26:16;6.43;;;3.72;;
70975;SDS011;58635;51.198;6.010;2023-02-28T08:28:42;6.00;;;4.05;;
70975;SDS011;58635;51.198;6.010;2023-02-28T08:31:09;9.57;;;4.78;;
70975;SDS011;58635;51.198;6.010;2023-02-28T08:33:37;5.68;;;3.45;;
70975;SDS011;58635;51.198;6.010;2023-02-28T08:36:04;5.43;;;3.33;;
70975;SDS011;58635;51.198;6.010;2023-02-28T08:38:30;5.05;;;3.40;;
70975;SDS011;58635;51.198;6.010;2023-02-28T08:41:00;6.50;;;3.33;;
70975;SDS011;58635;51.198;6.010;2023-02-28T08:43:28;6.60;;;3.30;;
70975;SDS011;58635;51.198;6.010;2023-02-28T08:45:54;6.38;;;3.38;;
70975;SDS011;58635;51.198;6.010;2023-02-28T08:48:24;6.10;;;2.92;;
70975;SDS011;58635;51.198;6.010;2023-02-28T08:51:04;5.05;;;3.00;;
70975;SDS011;58635;51.198;6.010;2023-02-28T08:53:32;5.63;;;2.88;;
70975;SDS011;58635;51.198;6.010;2023-02-28T08:56:01;8.77;;;2.63;;
70975;SDS011;58635;51.198;6.010;2023-02-28T08:58:32;7.30;;;2.80;;
70975;SDS011;58635;51.198;6.010;2023-02-28T09:00:59;6.07;;;2.80;;
70975;SDS011;58635;51.198;6.010;2023-02-28T09:03:25;5.80;;;2.92;;
70975;SDS011;58635;51.198;6.010;2023-02-28T09:06:01;5.43;;;3.05;;
70975;SDS011;58635;51.198;6.010;2023-02-28T09:08:27;4.28;;;3.03;;
70975;SDS011;58635;51.198;6.010;2023-02-28T09:10:55;5.68;;;2.55;;
70975;SDS011;58635;51.198;6.010;2023-02-28T09:13:26;4.57;;;2.75;;
70975;SDS011;58635;51.198;6.010;2023-02-28T09:15:52;6.10;;;3.25;;
70975;SDS011;58635;51.198;6.010;2023-02-28T09:18:18;4.00;;;2.63;;
70975;SDS011;58635;51.198;6.010;2023-02-28T09:20:44;5.88;;;2.70;;
70975;SDS011;58635;51.198;6.010;2023-02-28T09:23:11;4.82;;;2.47;;
70975;SDS011;58635;51.198;6.010;2023-02-28T09:25:37;4.45;;;2.30;;
70975;SDS011;58635;51.198;6.010;2023-02-28T09:28:10;4.22;;;2.35;;
70975;SDS011;58635;51.198;6.010;2023-02-28T09:30:41;6.28;;;2.20;;
70975;SDS011;58635;51.198;6.010;2023-02-28T09:33:06;4.20;;;2.30;;
70975;SDS011;58635;51.198;6.010;2023-02-28T09:35:32;4.53;;;2.50;;
70975;SDS011;58635;51.198;6.010;2023-02-28T09:37:57;5.32;;;2.40;;
70975;SDS011;58635;51.198;6.010;2023-02-28T09:40:23;3.83;;;2.10;;
70975;SDS011;58635;51.198;6.010;2023-02-28T09:42:54;3.55;;;2.40;;
70975;SDS011;58635;51.198;6.010;2023-02-28T09:45:40;3.67;;;2.60;;
70975;SDS011;58635;51.198;6.010;2023-02-28T09:48:20;3.95;;;2.13;;
70975;SDS011;58635;51.198;6.010;2023-02-28T09:50:50;3.60;;;1.80;;
70975;SDS011;58635;51.198;6.010;2023-02-28T09:53:33;2.92;;;1.90;;
70975;SDS011;58635;51.198;6.010;2023-02-28T10:07:17;2.45;;;1.70;;
70975;SDS011;58635;51.198;6.010;2023-02-28T10:09:49;3.47;;;1.60;;
70975;SDS011;58635;51.198;6.010;2023-02-28T10:12:18;6.32;;;1.73;;
70975;SDS011;58635;51.198;6.010;2023-02-28T10:14:45;4.18;;;1.60;;
70975;SDS011;58635;51.198;6.010;2023-02-28T10:17:15;3.33;;;1.60;;
70975;SDS011;58635;51.198;6.010;2023-02-28T10:25:23;5.90;;;1.92;;
70975;SDS011;58635;51.198;6.010;2023-02-28T10:27:54;3.35;;;1.88;;
70975;SDS011;58635;51.198;6.010;2023-02-28T10:30:26;2.33;;;1.77;;
70975;SDS011;58635;51.198;6.010;2023-02-28T10:32:51;4.30;;;1.70;;
70975;SDS011;58635;51.198;6.010;2023-02-28T10:37:55;3.08;;;2.08;;
70975;SDS011;58635;51.198;6.010;2023-02-28T10:45:19;4.78;;;2.17;;
70975;SDS011;58635;51.198;6.010;2023-02-28T10:47:54;2.60;;;1.85;;
70975;SDS011;58635;51.198;6.010;2023-02-28T10:50:34;3.28;;;1.92;;
70975;SDS011;58635;51.198;6.010;2023-02-28T10:55:35;5.22;;;2.45;;
70975;SDS011;58635;51.198;6.010;2023-02-28T10:58:00;3.85;;;1.90;;
70975;SDS011;58635;51.198;6.010;2023-02-28T11:00:26;3.70;;;2.30;;
70975;SDS011;58635;51.198;6.010;2023-02-28T11:02:58;5.10;;;2.10;;
70975;SDS011;58635;51.198;6.010;2023-02-28T11:07:51;3.63;;;2.25;;
70975;SDS011;58635;51.198;6.010;2023-02-28T11:10:23;2.83;;;1.80;;
70975;SDS011;58635;51.198;6.010;2023-02-28T11:12:54;3.55;;;2.15;;
70975;SDS011;58635;51.198;6.010;2023-02-28T11:15:25;4.28;;;2.15;;
70975;SDS011;58635;51.198;6.010;2023-02-28T11:18:14;5.65;;;2.72;;
70975;SDS011;58635;51.198;6.010;2023-02-28T11:20:46;3.40;;;2.30;;
70975;SDS011;58635;51.198;6.010;2023-02-28T11:23:15;3.80;;;2.10;;
70975;SDS011;58635;51.198;6.010;2023-02-28T11:25:45;2.97;;;2.10;;
70975;SDS011;58635;51.198;6.010;2023-02-28T11:28:27;5.97;;;2.13;;
70975;SDS011;58635;51.198;6.010;2023-02-28T11:36:22;4.53;;;2.08;;
70975;SDS011;58635;51.198;6.010;2023-02-28T11:39:10;4.43;;;2.00;;
70975;SDS011;58635;51.198;6.010;2023-02-28T11:47:54;4.65;;;2.25;;
70975;SDS011;58635;51.198;6.010;2023-02-28T11:52:50;3.65;;;1.92;;
70975;SDS011;58635;51.198;6.010;2023-02-28T11:55:31;5.15;;;2.63;;
70975;SDS011;58635;51.198;6.010;2023-02-28T11:58:12;3.97;;;2.22;;
70975;SDS011;58635;51.198;6.010;2023-02-28T12:03:56;3.35;;;2.05;;
70975;SDS011;58635;51.198;6.010;2023-02-28T12:11:56;3.97;;;2.28;;
70975;SDS011;58635;51.198;6.010;2023-02-28T12:17:39;4.28;;;2.10;;
70975;SDS011;58635;51.198;6.010;2023-02-28T12:28:21;4.30;;;2.10;;
70975;SDS011;58635;51.198;6.010;2023-02-28T12:30:54;5.80;;;2.47;;
70975;SDS011;58635;51.198;6.010;2023-02-28T12:33:27;2.88;;;1.90;;
70975;SDS011;58635;51.198;6.010;2023-02-28T12:38:27;3.88;;;1.85;;
70975;SDS011;58635;51.198;6.010;2023-02-28T12:41:05;4.43;;;1.95;;
70975;SDS011;58635;51.198;6.010;2023-02-28T12:43:41;4.22;;;1.85;;
70975;SDS011;58635;51.198;6.010;2023-02-28T12:46:17;4.93;;;1.90;;
70975;SDS011;58635;51.198;6.010;2023-02-28T12:48:50;4.57;;;2.30;;
70975;SDS011;58635;51.198;6.010;2023-02-28T12:51:21;4.30;;;1.80;;
70975;SDS011;58635;51.198;6.010;2023-02-28T12:59:18;4.45;;;1.90;;
70975;SDS011;58635;51.198;6.010;2023-02-28T13:10:10;3.30;;;2.08;;
70975;SDS011;58635;51.198;6.010;2023-02-28T13:12:35;3.13;;;1.70;;
70975;SDS011;58635;51.198;6.010;2023-02-28T13:15:08;4.90;;;2.10;;
70975;SDS011;58635;51.198;6.010;2023-02-28T13:17:41;3.63;;;1.98;;
70975;SDS011;58635;51.198;6.010;2023-02-28T13:20:16;5.10;;;2.00;;
70975;SDS011;58635;51.198;6.010;2023-02-28T13:22:47;3.53;;;1.77;;
70975;SDS011;58635;51.198;6.010;2023-02-28T13:27:58;5.22;;;2.15;;
70975;SDS011;58635;51.198;6.010;2023-02-28T13:35:44;6.70;;;2.08;;
70975;SDS011;58635;51.198;6.010;2023-02-28T13:38:45;3.80;;;1.90;;
70975;SDS011;58635;51.198;6.010;2023-02-28T13:44:13;3.47;;;1.88;;
70975;SDS011;58635;51.198;6.010;2023-02-28T13:49:18;4.57;;;2.40;;
70975;SDS011;58635;51.198;6.010;2023-02-28T13:55:22;3.30;;;1.80;;
70975;SDS011;58635;51.198;6.010;2023-02-28T14:06:28;4.28;;;2.30;;
70975;SDS011;58635;51.198;6.010;2023-02-28T14:14:02;3.17;;;2.05;;
70975;SDS011;58635;51.198;6.010;2023-02-28T14:16:36;3.90;;;2.20;;
70975;SDS011;58635;51.198;6.010;2023-02-28T14:19:14;3.95;;;2.25;;
70975;SDS011;58635;51.198;6.010;2023-02-28T14:24:48;3.90;;;2.17;;
70975;SDS011;58635;51.198;6.010;2023-02-28T14:33:33;4.10;;;2.50;;
70975;SDS011;58635;51.198;6.010;2023-02-28T14:36:09;5.07;;;2.22;;
70975;SDS011;58635;51.198;6.010;2023-02-28T14:41:16;4.43;;;2.67;;
70975;SDS011;58635;51.198;6.010;2023-02-28T14:43:50;5.07;;;2.53;;
70975;SDS011;58635;51.198;6.010;2023-02-28T14:46:18;2.83;;;2.05;;
70975;SDS011;58635;51.198;6.010;2023-02-28T14:48:45;3.92;;;2.25;;
70975;SDS011;58635;51.198;6.010;2023-02-28T14:51:12;3.97;;;2.33;;
70975;SDS011;58635;51.198;6.010;2023-02-28T14:53:43;3.20;;;2.20;;
70975;SDS011;58635;51.198;6.010;2023-02-28T14:56:24;4.25;;;2.30;;
70975;SDS011;58635;51.198;6.010;2023-02-28T14:58:54;5.65;;;2.33;;
70975;SDS011;58635;51.198;6.010;2023-02-28T15:01:21;3.83;;;2.08;;
70975;SDS011;58635;51.198;6.010;2023-02-28T15:03:48;4.40;;;2.28;;
70975;SDS011;58635;51.198;6.010;2023-02-28T15:06:22;7.72;;;2.30;;
70975;SDS011;58635;51.198;6.010;2023-02-28T15:09:01;9.00;;;2.53;;
70975;SDS011;58635;51.198;6.010;2023-02-28T15:11:32;4.57;;;2.03;;
70975;SDS011;58635;51.198;6.010;2023-02-28T15:13:58;2.92;;;2.00;;
70975;SDS011;58635;51.198;6.010;2023-02-28T15:16:25;3.90;;;2.30;;
70975;SDS011;58635;51.198;6.010;2023-02-28T15:19:00;4.57;;;2.42;;
70975;SDS011;58635;51.198;6.010;2023-02-28T15:21:29;5.30;;;3.17;;
70975;SDS011;58635;51.198;6.010;2023-02-28T15:26:59;4.50;;;2.47;;
70975;SDS011;58635;51.198;6.010;2023-02-28T15:29:29;5.22;;;2.45;;
70975;SDS011;58635;51.198;6.010;2023-02-28T15:32:01;4.45;;;2.28;;
70975;SDS011;58635;51.198;6.010;2023-02-28T15:34:42;5.05;;;2.30;;
70975;SDS011;58635;51.198;6.010;2023-02-28T15:40:12;4.65;;;2.22;;
70975;SDS011;58635;51.198;6.010;2023-02-28T15:42:38;5.07;;;2.42;;
70975;SDS011;58635;51.198;6.010;2023-02-28T15:45:03;3.83;;;2.45;;
70975;SDS011;58635;51.198;6.010;2023-02-28T15:47:29;4.32;;;2.67;;
70975;SDS011;58635;51.198;6.010;2023-02-28T15:50:02;4.13;;;2.65;;
70975;SDS011;58635;51.198;6.010;2023-02-28T15:52:37;4.40;;;2.60;;
70975;SDS011;58635;51.198;6.010;2023-02-28T15:57:45;4.47;;;2.70;;
70975;SDS011;58635;51.198;6.010;2023-02-28T16:00:13;6.47;;;3.33;;
70975;SDS011;58635;51.198;6.010;2023-02-28T16:02:41;6.05;;;2.80;;
70975;SDS011;58635;51.198;6.010;2023-02-28T16:07:35;5.93;;;2.63;;
70975;SDS011;58635;51.198;6.010;2023-02-28T16:10:02;4.88;;;2.60;;
70975;SDS011;58635;51.198;6.010;2023-02-28T16:12:30;4.28;;;2.70;;
70975;SDS011;58635;51.198;6.010;2023-02-28T16:14:58;5.95;;;2.60;;
70975;SDS011;58635;51.198;6.010;2023-02-28T16:17:29;5.20;;;2.90;;
70975;SDS011;58635;51.198;6.010;2023-02-28T16:19:58;4.45;;;3.05;;
70975;SDS011;58635;51.198;6.010;2023-02-28T16:22:23;3.95;;;2.80;;
70975;SDS011;58635;51.198;6.010;2023-02-28T16:24:49;5.30;;;3.03;;
70975;SDS011;58635;51.198;6.010;2023-02-28T16:29:55;4.15;;;3.10;;
70975;SDS011;58635;51.198;6.010;2023-02-28T16:32:20;6.18;;;3.22;;
70975;SDS011;58635;51.198;6.010;2023-02-28T16:34:46;5.90;;;2.95;;
70975;SDS011;58635;51.198;6.010;2023-02-28T16:37:15;6.32;;;3.20;;
70975;SDS011;58635;51.198;6.010;2023-02-28T16:39:42;6.10;;;3.80;;
70975;SDS011;58635;51.198;6.010;2023-02-28T16:42:16;5.00;;;3.38;;
70975;SDS011;58635;51.198;6.010;2023-02-28T16:44:53;5.90;;;2.80;;
70975;SDS011;58635;51.198;6.010;2023-02-28T16:47:20;6.72;;;3.08;;
70975;SDS011;58635;51.198;6.010;2023-02-28T16:49:46;5.18;;;2.83;;
70975;SDS011;58635;51.198;6.010;2023-02-28T16:52:12;6.25;;;2.80;;
70975;SDS011;58635;51.198;6.010;2023-02-28T16:54:39;5.03;;;3.22;;
70975;SDS011;58635;51.198;6.010;2023-02-28T16:57:06;4.53;;;2.97;;
70975;SDS011;58635;51.198;6.010;2023-02-28T16:59:36;7.18;;;3.08;;
70975;SDS011;58635;51.198;6.010;2023-02-28T17:02:04;9.27;;;3.20;;
70975;SDS011;58635;51.198;6.010;2023-02-28T17:04:37;4.72;;;3.05;;
70975;SDS011;58635;51.198;6.010;2023-02-28T17:07:02;6.88;;;2.92;;
70975;SDS011;58635;51.198;6.010;2023-02-28T17:09:28;5.18;;;2.70;;
70975;SDS011;58635;51.198;6.010;2023-02-28T17:11:53;5.28;;;3.17;;
70975;SDS011;58635;51.198;6.010;2023-02-28T17:14:19;5.35;;;3.00;;
70975;SDS011;58635;51.198;6.010;2023-02-28T17:16:46;4.47;;;2.90;;
70975;SDS011;58635;51.198;6.010;2023-02-28T17:19:13;4.90;;;3.00;;
70975;SDS011;58635;51.198;6.010;2023-02-28T17:21:43;5.20;;;3.08;;
70975;SDS011;58635;51.198;6.010;2023-02-28T17:24:09;5.53;;;3.15;;
70975;SDS011;58635;51.198;6.010;2023-02-28T17:26:37;6.57;;;3.72;;
70975;SDS011;58635;51.198;6.010;2023-02-28T17:29:11;4.78;;;3.25;;
70975;SDS011;58635;51.198;6.010;2023-02-28T17:31:39;5.72;;;3.50;;
70975;SDS011;58635;51.198;6.010;2023-02-28T17:34:05;6.68;;;4.05;;
70975;SDS011;58635;51.198;6.010;2023-02-28T17:36:30;6.28;;;3.20;;
70975;SDS011;58635;51.198;6.010;2023-02-28T17:38:58;5.10;;;2.97;;
70975;SDS011;58635;51.198;6.010;2023-02-28T17:41:24;7.57;;;3.72;;
70975;SDS011;58635;51.198;6.010;2023-02-28T17:43:51;6.60;;;3.22;;